Time;durP1;ratioP1;P1;durP2;ratioP2;P2;SDS_P1;SDS_P2;PMS_P1;PMS_P2;Temp;Humidity;BMP_temperature;BMP_pressure;BME280_temperature;BME280_humidity;BME280_pressure;Samples;Min_cycle;Max_cycle;Signal;HPM_P1;HPM_P2
2021/04/10 00:00:41;;;;;;;75.27;52.80;;;;;;;4.89;50.58;100230.26;121544;1159;22583;-80
2021/04/10 00:03:15;;;;;;;73.23;50.60;;;;;;;4.85;50.71;100231.50;121781;1158;22581;-80
2021/04/10 00:05:43;;;;;;;73.90;52.15;;;;;;;4.80;50.86;100228.44;121763;1158;23404;-79
2021/04/10 00:08:11;;;;;;;76.25;52.45;;;;;;;4.79;51.07;100230.23;121694;1158;25176;-79
2021/04/10 00:10:40;;;;;;;75.13;51.88;;;;;;;4.80;51.34;100228.44;121074;1161;22618;-79
2021/04/10 00:13:08;;;;;;;67.87;47.07;;;;;;;4.81;51.49;100227.50;121273;1159;22603;-79
2021/04/10 00:15:37;;;;;;;67.95;47.23;;;;;;;4.84;51.49;100222.00;121272;1159;24431;-79
2021/04/10 00:18:05;;;;;;;68.03;49.83;;;;;;;4.84;51.39;100229.84;121624;1158;22575;-79
2021/04/10 00:20:33;;;;;;;74.45;51.00;;;;;;;4.81;51.44;100224.88;121614;1159;24415;-79
2021/04/10 00:23:02;;;;;;;63.08;46.73;;;;;;;4.75;51.54;100226.23;121573;1159;22559;-79
2021/04/10 00:25:31;;;;;;;62.80;46.33;;;;;;;4.67;51.57;100229.52;121610;1158;22671;-80
2021/04/10 00:27:59;;;;;;;69.70;47.28;;;;;;;4.66;51.63;100227.02;121796;1157;23469;-80
2021/04/10 00:30:28;;;;;;;61.75;45.15;;;;;;;4.64;52.02;100231.58;122031;1155;23425;-79
2021/04/10 00:32:56;;;;;;;65.33;45.58;;;;;;;4.60;51.83;100219.70;121808;1155;22934;-80
2021/04/10 00:35:24;;;;;;;64.75;46.70;;;;;;;4.57;52.17;100227.84;122137;1155;25622;-79
2021/04/10 00:37:52;;;;;;;66.48;47.83;;;;;;;4.54;52.26;100228.92;122031;1153;22538;-79
2021/04/10 00:40:21;;;;;;;67.30;43.45;;;;;;;4.52;52.24;100224.77;122098;1153;24738;-79
2021/04/10 00:42:50;;;;;;;60.98;42.95;;;;;;;4.45;52.22;100216.63;121585;1157;22576;-79
2021/04/10 00:45:21;;;;;;;64.93;43.58;;;;;;;4.37;52.29;100222.52;121605;1158;22579;-78
2021/04/10 00:47:50;;;;;;;65.80;45.53;;;;;;;4.35;52.60;100221.81;121552;1156;22578;-79
2021/04/10 00:50:19;;;;;;;62.25;44.90;;;;;;;4.34;52.54;100220.16;121600;1158;22560;-79
2021/04/10 00:52:48;;;;;;;62.25;46.00;;;;;;;4.34;52.73;100224.57;121273;1161;22610;-82
2021/04/10 00:55:16;;;;;;;63.00;44.15;;;;;;;4.37;52.87;100222.52;121034;1161;23375;-79
2021/04/10 00:57:45;;;;;;;62.90;45.00;;;;;;;4.40;53.00;100222.26;120740;1164;22618;-78
2021/04/10 01:00:14;;;;;;;69.10;47.05;;;;;;;4.41;52.90;100223.91;120691;1166;23668;-79
2021/04/10 01:02:42;;;;;;;64.07;45.77;;;;;;;4.40;52.76;100221.44;120992;1163;22621;-78
2021/04/10 01:05:13;;;;;;;61.25;43.98;;;;;;;4.38;52.80;100220.73;120973;1164;24774;-79
2021/04/10 01:07:42;;;;;;;60.67;43.77;;;;;;;4.36;52.72;100223.45;120963;1164;22726;-80
2021/04/10 01:10:12;;;;;;;61.40;44.23;;;;;;;4.30;52.86;100228.38;120970;1161;22622;-79
2021/04/10 01:12:49;;;;;;;56.70;40.55;;;;;;;4.19;52.85;100230.13;121235;1161;22610;-79
2021/04/10 01:15:56;;;;;;;58.25;40.63;;;;;;;4.08;53.10;100227.59;121281;1161;22607;-80
2021/04/10 01:18:46;;;;;;;71.63;50.13;;;;;;;4.01;53.45;100226.45;121414;1159;24704;-80
2021/04/10 01:21:33;;;;;;;68.48;48.60;;;;;;;3.97;53.77;100225.06;121429;1158;22613;-80
2021/04/10 01:24:18;;;;;;;63.33;45.65;;;;;;;3.96;53.81;100226.00;121654;1156;23679;-80
2021/04/10 01:27:23;;;;;;;59.93;43.85;;;;;;;3.97;53.84;100218.05;121868;1156;22584;-80
2021/04/10 01:30:07;;;;;;;59.60;42.95;;;;;;;4.00;53.85;100225.63;121542;1158;22555;-81
2021/04/10 01:32:45;;;;;;;56.93;42.73;;;;;;;4.04;54.03;100235.83;121296;1161;22576;-82
2021/04/10 01:35:17;;;;;;;69.65;47.53;;;;;;;4.03;53.91;100231.54;121585;1159;22486;-81
2021/04/10 01:37:59;;;;;;;69.85;49.85;;;;;;;4.00;53.75;100230.03;121533;1159;22585;-80
2021/04/10 01:40:33;;;;;;;66.03;47.37;;;;;;;3.98;53.91;100224.92;121315;1161;22579;-81
2021/04/10 01:43:05;;;;;;;63.73;45.78;;;;;;;3.98;53.63;100224.09;121392;1161;25224;-81
2021/04/10 01:45:35;;;;;;;55.68;41.03;;;;;;;3.97;53.88;100233.73;121436;1161;23451;-81
2021/04/10 01:48:12;;;;;;;51.40;39.10;;;;;;;3.95;53.92;100225.17;121298;1158;24735;-81
2021/04/10 01:50:42;;;;;;;56.03;39.83;;;;;;;3.96;54.08;100223.38;121358;1158;22618;-80
2021/04/10 01:53:12;;;;;;;55.78;38.45;;;;;;;3.97;54.03;100228.50;121868;1156;22552;-81
2021/04/10 01:55:42;;;;;;;48.78;36.73;;;;;;;3.98;54.12;100227.53;121935;1158;22562;-81
2021/04/10 01:58:17;;;;;;;51.85;37.25;;;;;;;3.96;54.05;100221.59;121235;1160;22681;-80
2021/04/10 02:00:48;;;;;;;51.53;37.20;;;;;;;3.94;54.11;100231.37;121158;1161;24787;-80
2021/04/10 02:03:18;;;;;;;56.43;41.35;;;;;;;3.92;54.25;100229.83;121230;1164;22802;-81
2021/04/10 02:05:49;;;;;;;52.97;42.50;;;;;;;3.89;54.22;100223.06;121523;1160;22603;-82
2021/04/10 02:08:52;;;;;;;55.25;42.60;;;;;;;3.79;54.26;100224.79;121171;1161;22716;-80
2021/04/10 02:11:28;;;;;;;54.83;40.73;;;;;;;3.74;54.56;100227.80;121036;1163;22610;-80
2021/04/10 02:14:04;;;;;;;57.33;42.68;;;;;;;3.74;54.56;100222.57;121008;1164;24814;-81
2021/04/10 02:16:47;;;;;;;51.70;39.63;;;;;;;3.77;54.74;100226.72;120920;1161;22681;-77
2021/04/10 02:19:19;;;;;;;50.80;37.53;;;;;;;3.78;54.70;100230.98;121196;1161;22667;-81
2021/04/10 02:22:00;;;;;;;48.55;36.95;;;;;;;3.82;54.93;100229.77;121253;1158;22567;-81
2021/04/10 02:24:34;;;;;;;49.90;37.15;;;;;;;3.85;54.86;100233.91;121243;1158;22592;-78
2021/04/10 02:27:10;;;;;;;43.95;33.25;;;;;;;3.85;54.86;100226.90;121493;1158;22560;-82
2021/04/10 02:29:45;;;;;;;43.88;30.53;;;;;;;3.80;54.60;100223.86;122040;1158;25023;-81
2021/04/10 02:32:48;;;;;;;39.53;27.00;;;;;;;3.74;54.77;100225.18;121820;1158;22566;-81
2021/04/10 02:35:50;;;;;;;46.90;30.58;;;;;;;3.70;54.88;100225.58;121755;1158;24699;-81
2021/04/10 02:38:24;;;;;;;42.80;30.50;;;;;;;3.70;54.91;100222.96;121561;1158;22554;-81
2021/04/10 02:41:26;;;;;;;40.58;29.58;;;;;;;3.70;55.15;100228.19;121821;1158;22628;-80
2021/04/10 02:44:03;;;;;;;43.38;30.53;;;;;;;3.66;55.19;100222.36;121426;1158;24875;-80
2021/04/10 02:46:52;;;;;;;41.53;30.33;;;;;;;3.68;55.02;100222.25;121335;1158;25202;-79
2021/04/10 02:49:26;;;;;;;43.30;29.70;;;;;;;3.69;55.13;100229.13;121271;1157;23566;-82
2021/04/10 02:52:00;;;;;;;42.60;31.65;;;;;;;3.69;55.28;100221.28;121381;1158;23355;-82
2021/04/10 02:54:36;;;;;;;54.43;36.95;;;;;;;3.69;55.33;100221.28;121496;1156;22549;-81
2021/04/10 02:57:12;;;;;;;47.60;35.13;;;;;;;3.67;55.21;100213.59;121587;1158;24181;-80
2021/04/10 02:59:48;;;;;;;42.88;30.25;;;;;;;3.64;55.11;100216.45;121400;1158;22585;-82
2021/04/10 03:02:19;;;;;;;39.13;28.75;;;;;;;3.60;55.57;100220.27;121605;1156;24434;-82
2021/04/10 03:04:56;;;;;;;40.23;29.57;;;;;;;3.58;55.56;100222.17;121600;1157;22629;-82
2021/04/10 03:07:26;;;;;;;42.20;29.53;;;;;;;3.58;55.67;100218.73;121654;1158;22644;-81
2021/04/10 03:10:03;;;;;;;39.50;29.73;;;;;;;3.58;55.58;100221.34;121685;1156;24735;-82
2021/04/10 03:12:32;;;;;;;42.85;30.05;;;;;;;3.58;55.67;100219.56;121473;1158;22566;-82
2021/04/10 03:15:03;;;;;;;41.58;30.08;;;;;;;3.56;55.78;100216.23;121476;1159;22671;-80
2021/04/10 03:17:40;;;;;;;39.45;29.68;;;;;;;3.55;55.73;100227.64;121564;1158;23464;-81
2021/04/10 03:20:16;;;;;;;41.28;32.38;;;;;;;3.52;55.70;100235.73;121398;1158;22585;-80
2021/04/10 03:22:48;;;;;;;40.48;29.95;;;;;;;3.48;55.60;100232.54;121760;1158;22552;-81
2021/04/10 03:25:24;;;;;;;41.25;32.95;;;;;;;3.45;55.95;100231.96;121656;1158;25973;-80
2021/04/10 03:27:55;;;;;;;43.78;33.90;;;;;;;3.41;56.07;100225.34;121350;1158;23345;-81
2021/04/10 03:30:28;;;;;;;53.23;34.20;;;;;;;3.40;56.04;100215.83;121452;1161;22605;-81
2021/04/10 03:32:59;;;;;;;47.20;32.10;;;;;;;3.38;56.33;100217.75;121113;1161;24731;-81
2021/04/10 03:35:29;;;;;;;41.83;30.50;;;;;;;3.31;56.13;100220.03;121151;1164;22712;-82
2021/04/10 03:38:03;;;;;;;38.78;29.33;;;;;;;3.25;56.04;100223.13;121057;1164;22583;-81
2021/04/10 03:40:39;;;;;;;40.90;29.80;;;;;;;3.22;56.58;100223.38;121186;1164;22631;-82
2021/04/10 03:43:08;;;;;;;44.20;31.73;;;;;;;3.20;56.72;100225.27;121056;1166;22635;-80
2021/04/10 03:45:47;;;;;;;47.33;32.28;;;;;;;3.19;56.85;100229.67;121127;1164;22597;-81
2021/04/10 03:48:29;;;;;;;47.18;30.58;;;;;;;3.18;56.90;100216.75;120974;1164;22703;-80
2021/04/10 03:51:06;;;;;;;49.80;33.30;;;;;;;3.17;57.00;100218.54;121081;1165;22663;-81
2021/04/10 03:53:51;;;;;;;50.17;33.40;;;;;;;3.16;57.31;100223.87;121254;1161;22615;-80
2021/04/10 03:56:23;;;;;;;54.48;34.78;;;;;;;3.16;57.10;100223.87;120966;1163;25333;-80
2021/04/10 03:58:55;;;;;;;52.68;33.45;;;;;;;3.10;57.08;100217.38;121380;1161;24744;-80
2021/04/10 04:01:43;;;;;;;44.63;32.97;;;;;;;3.07;57.38;100215.02;121298;1159;22618;-80
2021/04/10 04:04:12;;;;;;;43.50;33.55;;;;;;;3.05;57.39;100215.12;121191;1164;23434;-80
2021/04/10 04:06:40;;;;;;;46.97;34.60;;;;;;;3.05;57.48;100216.91;121186;1159;25234;-79
2021/04/10 04:09:09;;;;;;;48.18;35.35;;;;;;;3.04;57.67;100226.52;121148;1159;22650;-79
2021/04/10 04:11:38;;;;;;;47.15;33.73;;;;;;;3.04;57.56;100226.52;121252;1159;23519;-80
2021/04/10 04:14:07;;;;;;;45.88;32.98;;;;;;;3.05;57.83;100216.91;121322;1158;24132;-79
2021/04/10 04:16:35;;;;;;;54.05;34.28;;;;;;;3.08;57.98;100221.06;121901;1158;24732;-81
2021/04/10 04:19:03;;;;;;;46.43;33.38;;;;;;;3.06;57.72;100214.16;121873;1157;24715;-79
2021/04/10 04:21:36;;;;;;;49.50;36.55;;;;;;;3.06;57.92;100224.59;121870;1155;22937;-81
2021/04/10 04:24:06;;;;;;;49.48;37.55;;;;;;;3.06;57.94;100221.16;122382;1153;22554;-81
2021/04/10 04:26:37;;;;;;;45.50;33.95;;;;;;;3.05;58.02;100219.52;122121;1155;22550;-82
2021/04/10 04:29:06;;;;;;;42.98;33.03;;;;;;;3.08;58.18;100221.06;122112;1155;22628;-81
2021/04/10 04:31:37;;;;;;;49.73;35.63;;;;;;;3.10;58.17;100235.65;122456;1153;22549;-80
2021/04/10 04:34:06;;;;;;;44.98;34.83;;;;;;;3.10;58.01;100219.13;122047;1153;22551;-80
2021/04/10 04:36:38;;;;;;;44.53;35.28;;;;;;;3.10;58.19;100219.98;122089;1155;22554;-80
2021/04/10 04:39:06;;;;;;;46.30;33.08;;;;;;;3.10;58.25;100230.43;122139;1155;22573;-81
2021/04/10 04:41:35;;;;;;;47.10;33.43;;;;;;;3.10;58.13;100225.21;121905;1155;22770;-79
2021/04/10 04:44:03;;;;;;;46.53;33.13;;;;;;;3.10;58.46;100229.57;121235;1158;22666;-79
2021/04/10 04:46:33;;;;;;;44.88;34.05;;;;;;;3.11;58.42;100229.47;121313;1158;22571;-79
2021/04/10 04:49:06;;;;;;;49.23;33.17;;;;;;;3.14;58.62;100231.83;121287;1158;24757;-78
2021/04/10 04:51:37;;;;;;;62.88;39.55;;;;;;;3.20;58.97;100239.18;121274;1158;22574;-81
2021/04/10 04:54:05;;;;;;;55.68;39.00;;;;;;;3.26;58.80;100228.22;121252;1159;22705;-77
2021/04/10 04:56:49;;;;;;;55.88;35.83;;;;;;;3.33;58.94;100230.34;121245;1158;22839;-79
2021/04/10 04:59:17;;;;;;;55.70;38.70;;;;;;;3.40;58.73;100236.72;121327;1158;24809;-79
2021/04/10 05:01:47;;;;;;;53.90;37.73;;;;;;;3.48;58.70;100240.38;121384;1156;23450;-78
2021/04/10 05:04:15;;;;;;;56.13;40.60;;;;;;;3.59;58.70;100243.89;121565;1158;24384;-77
2021/04/10 05:06:44;;;;;;;57.13;37.43;;;;;;;3.70;58.76;100236.02;121429;1158;24045;-78
2021/04/10 05:09:13;;;;;;;60.53;40.10;;;;;;;3.76;58.48;100235.49;121639;1155;24747;-80
2021/04/10 05:11:42;;;;;;;58.73;40.08;;;;;;;3.80;57.99;100238.68;121683;1156;22631;-79
2021/04/10 05:14:11;;;;;;;56.68;38.73;;;;;;;3.86;58.36;100241.61;121632;1158;22580;-79
2021/04/10 05:16:41;;;;;;;59.63;40.30;;;;;;;3.93;58.16;100234.09;121526;1157;22598;-78
2021/04/10 05:19:09;;;;;;;59.45;39.05;;;;;;;3.99;58.16;100236.20;121603;1156;22558;-79
2021/04/10 05:21:38;;;;;;;53.75;39.25;;;;;;;4.08;58.30;100239.84;121635;1158;23515;-78
2021/04/10 05:24:07;;;;;;;53.40;35.95;;;;;;;4.16;58.19;100240.84;121573;1157;23352;-78
2021/04/10 05:26:36;;;;;;;54.50;37.98;;;;;;;4.25;58.02;100245.30;121788;1155;22799;-79
2021/04/10 05:29:06;;;;;;;54.38;37.80;;;;;;;4.29;58.40;100250.27;121581;1155;22547;-79
2021/04/10 05:31:35;;;;;;;51.15;38.53;;;;;;;4.36;58.04;100257.45;121370;1158;22564;-79
2021/04/10 05:34:06;;;;;;;55.53;39.33;;;;;;;4.48;57.85;100266.89;121577;1158;22570;-79
2021/04/10 05:36:59;;;;;;;50.90;36.65;;;;;;;4.66;58.29;100266.27;121897;1155;24471;-80
2021/04/10 05:39:30;;;;;;;45.95;33.78;;;;;;;4.88;58.34;100257.41;121742;1156;22559;-83
2021/04/10 05:42:04;;;;;;;49.10;35.23;;;;;;;5.09;58.05;100255.52;121957;1155;22569;-80
2021/04/10 05:44:33;;;;;;;48.43;33.43;;;;;;;5.24;57.55;100257.77;121660;1158;22571;-80
2021/04/10 05:47:03;;;;;;;46.17;33.37;;;;;;;5.33;56.57;100257.78;121233;1160;22588;-79
2021/04/10 05:49:37;;;;;;;46.10;32.43;;;;;;;5.37;56.63;100263.58;121294;1158;26063;-78
2021/04/10 05:52:12;;;;;;;57.48;37.70;;;;;;;5.42;56.67;100261.36;121442;1158;24877;-79
2021/04/10 05:54:41;;;;;;;51.00;35.78;;;;;;;5.50;56.55;100250.19;121328;1158;22564;-81
2021/04/10 05:57:12;;;;;;;;;;;;;;;5.54;56.33;100249.79;121302;1162;25061;-80
2021/04/10 05:59:43;;;;;;;40.63;30.68;;;;;;;5.56;56.32;100252.27;121281;1158;21361;-79
2021/04/10 06:02:39;;;;;;;43.75;31.58;;;;;;;5.64;56.32;100234.07;121617;1156;25209;-79
2021/04/10 06:05:22;;;;;;;36.53;27.70;;;;;;;5.67;56.03;100228.55;121738;1155;22568;-80
2021/04/10 06:08:02;;;;;;;41.05;28.03;;;;;;;5.71;55.92;100235.16;122367;1153;22563;-80
2021/04/10 06:10:33;;;;;;;37.47;29.00;;;;;;;5.80;55.96;100239.58;122076;1155;24693;-79
2021/04/10 06:13:05;;;;;;;40.95;29.03;;;;;;;5.94;56.52;100240.14;121752;1158;23410;-75
2021/04/10 06:15:33;;;;;;;32.35;26.23;;;;;;;6.11;56.01;100244.66;121461;1158;22566;-74
2021/04/10 06:18:08;;;;;;;30.25;23.45;;;;;;;6.22;55.51;100243.66;121591;1158;24440;-82
2021/04/10 06:20:57;;;;;;;26.88;21.10;;;;;;;6.30;55.32;100257.73;121232;1158;24725;-76
2021/04/10 06:23:28;;;;;;;28.93;19.40;;;;;;;6.41;55.24;100267.22;121104;1161;22576;-76
2021/04/10 06:26:27;;;;;;;;;;;;;;;;;;;;;
2021/04/10 06:29:14;;;;;;;43.83;29.30;;;;;;;6.77;54.85;100268.20;121278;1162;23516;-77
2021/04/10 06:31:45;;;;;;;30.48;23.38;;;;;;;7.04;54.85;100272.62;121100;1159;22573;-78
2021/04/10 06:34:26;;;;;;;35.95;22.83;;;;;;;7.33;53.81;100271.63;121217;1158;22643;-78
2021/04/10 06:37:16;;;;;;;26.20;20.25;;;;;;;7.69;54.10;100276.88;121233;1158;22586;-76
2021/04/10 06:39:55;;;;;;;29.07;21.43;;;;;;;7.90;52.92;100277.41;121520;1156;23095;-76
2021/04/10 06:42:28;;;;;;;32.85;24.25;;;;;;;8.11;52.56;100276.23;121182;1161;22631;-77
2021/04/10 06:44:59;;;;;;;29.20;22.93;;;;;;;8.30;52.10;100269.93;121306;1158;22573;-74
2021/04/10 06:47:33;;;;;;;28.30;22.63;;;;;;;8.52;52.00;100266.81;121152;1158;22586;-75
2021/04/10 06:50:12;;;;;;;36.38;25.68;;;;;;;8.78;51.71;100253.61;121209;1156;22579;-75
2021/04/10 06:52:44;;;;;;;32.40;23.30;;;;;;;9.04;51.35;100250.09;121537;1157;24444;-75
2021/04/10 06:55:16;;;;;;;33.38;22.70;;;;;;;9.39;51.14;100255.09;121220;1158;22867;-74
2021/04/10 06:58:01;;;;;;;29.93;22.93;;;;;;;9.74;50.56;100255.80;121175;1158;22596;-76
2021/04/10 07:00:30;;;;;;;49.75;31.25;;;;;;;10.00;49.62;100250.36;121292;1156;22572;-76
2021/04/10 07:03:04;;;;;;;219.73;105.88;;;;;;;10.20;49.17;100242.91;121187;1158;22586;-76
2021/04/10 07:05:37;;;;;;;585.43;323.48;;;;;;;10.29;48.56;100243.72;121390;1158;22686;-77
2021/04/10 07:08:09;;;;;;;458.80;237.35;;;;;;;10.38;48.09;100248.00;121252;1158;24697;-77
2021/04/10 07:10:42;;;;;;;269.25;111.48;;;;;;;10.43;47.77;100250.98;121295;1158;24757;-77
2021/04/10 07:13:10;;;;;;;150.48;66.50;;;;;;;10.49;47.55;100255.55;121320;1159;23376;-75
2021/04/10 07:15:46;;;;;;;77.83;40.93;;;;;;;10.60;47.22;100246.47;121256;1158;22599;-75
2021/04/10 07:18:18;;;;;;;44.13;29.43;;;;;;;10.63;47.02;100246.13;121052;1161;22611;-74
2021/04/10 07:20:46;;;;;;;44.33;28.20;;;;;;;10.66;46.57;100245.75;121264;1158;22697;-74
2021/04/10 07:23:15;;;;;;;39.45;26.83;;;;;;;10.85;46.72;100247.17;121527;1155;22775;-76
2021/04/10 07:25:45;;;;;;;59.75;33.58;;;;;;;11.15;46.90;100250.01;121510;1156;22691;-75
2021/04/10 07:28:28;;;;;;;64.40;35.03;;;;;;;11.45;46.38;100257.09;121568;1158;22552;-76
2021/04/10 07:31:04;;;;;;;45.53;28.88;;;;;;;11.75;45.03;100259.84;121230;1156;22916;-76
2021/04/10 07:34:21;;;;;;;37.23;25.55;;;;;;;11.91;44.67;100250.99;121788;1158;22565;-77
2021/04/10 07:37:45;;;;;;;31.45;23.98;;;;;;;12.10;44.15;100249.67;121408;1157;22572;-76
2021/04/10 07:40:31;;;;;;;32.08;23.18;;;;;;;12.45;44.20;100250.78;121094;1161;22653;-75
2021/04/10 07:43:03;;;;;;;25.33;19.68;;;;;;;12.82;43.84;100243.73;121157;1159;22622;-76
2021/04/10 07:45:36;;;;;;;33.80;24.43;;;;;;;13.12;43.14;100261.23;120872;1162;22675;-75
2021/04/10 07:48:20;;;;;;;;;;;;;;;;;;;;;
2021/04/10 07:51:55;;;;;;;23.03;15.77;;;;;;;13.30;41.47;100260.05;120936;1161;22682;-75
2021/04/10 07:54:51;;;;;;;;;;;;;;;;;;;;;
2021/04/10 07:57:42;;;;;;;23.15;18.25;;;;;;;13.36;41.29;100259.27;120860;1167;25993;-80
2021/04/10 08:00:24;;;;;;;25.15;19.78;;;;;;;13.62;41.33;100243.61;120930;1166;22600;-79
2021/04/10 08:03:56;;;;;;;29.53;18.55;;;;;;;13.83;40.15;100247.29;120974;1164;25327;-80
2021/04/10 08:07:00;;;;;;;19.47;16.47;;;;;;;14.04;39.85;100239.28;121216;1160;22534;-79
2021/04/10 08:09:44;;;;;;;20.33;17.20;;;;;;;14.26;39.80;100247.17;121281;1159;25425;-79
2021/04/10 08:13:08;;;;;;;19.80;16.37;;;;;;;14.61;38.40;100233.94;121721;1158;22563;-75
2021/04/10 08:15:37;;;;;;;19.28;15.18;;;;;;;14.85;38.38;100236.09;121285;1159;22559;-76
2021/04/10 08:18:24;;;;;;;21.18;17.15;;;;;;;15.17;37.33;100239.08;121275;1161;22780;-78
2021/04/10 08:20:53;;;;;;;19.73;16.23;;;;;;;15.52;37.76;100239.75;121103;1158;22988;-74
2021/04/10 08:23:26;;;;;;;25.03;18.13;;;;;;;16.15;37.39;100245.53;121218;1159;22582;-77
2021/04/10 08:25:59;;;;;;;28.28;19.60;;;;;;;16.84;36.86;100260.17;121196;1159;22641;-77
2021/04/10 08:28:42;;;;;;;23.97;18.33;;;;;;;17.17;35.03;100251.20;121166;1161;23002;-75
2021/04/10 08:31:26;;;;;;;20.00;16.68;;;;;;;17.09;35.25;100256.77;121305;1156;22573;-75
2021/04/10 08:33:58;;;;;;;26.20;19.58;;;;;;;17.04;34.87;100259.28;121203;1158;24489;-76
2021/04/10 08:36:32;;;;;;;24.53;19.75;;;;;;;16.93;34.65;100258.91;121263;1158;22587;-76
2021/04/10 08:39:16;;;;;;;23.58;18.80;;;;;;;16.78;34.74;100263.68;121130;1158;22627;-76
2021/04/10 08:41:55;;;;;;;23.60;19.25;;;;;;;16.54;35.10;100259.02;121235;1158;22581;-78
2021/04/10 08:44:47;;;;;;;19.93;17.30;;;;;;;16.40;35.49;100268.89;121616;1158;22565;-76
2021/04/10 08:47:19;;;;;;;18.23;14.63;;;;;;;16.09;35.36;100264.19;121659;1156;22573;-76
2021/04/10 08:49:51;;;;;;;21.40;16.03;;;;;;;16.03;36.19;100262.34;121622;1158;24476;-77
2021/04/10 08:52:34;;;;;;;20.55;15.98;;;;;;;15.94;35.79;100267.08;121682;1158;23512;-77
2021/04/10 08:55:10;;;;;;;16.88;15.08;;;;;;;15.80;35.47;100276.09;121348;1158;22555;-78
2021/04/10 08:57:52;;;;;;;21.88;16.83;;;;;;;15.47;35.47;100274.98;121517;1156;22577;-77
2021/04/10 09:01:04;;;;;;;17.73;14.48;;;;;;;15.19;35.67;100276.93;121648;1158;22910;-76
2021/04/10 09:04:10;;;;;;;18.85;14.60;;;;;;;15.11;36.53;100275.27;121174;1161;22576;-76
2021/04/10 09:06:55;;;;;;;18.37;16.27;;;;;;;15.19;36.53;100274.27;121198;1161;22585;-77
2021/04/10 09:09:48;;;;;;;19.43;14.43;;;;;;;15.23;36.50;100270.22;121295;1159;22598;-77
2021/04/10 09:12:44;;;;;;;23.67;15.43;;;;;;;15.13;36.09;100269.73;120939;1164;22605;-78
2021/04/10 09:15:17;;;;;;;21.00;16.25;;;;;;;15.04;35.80;100280.57;121014;1164;22607;-76
2021/04/10 09:18:05;;;;;;;20.08;16.13;;;;;;;15.01;36.40;100272.98;121017;1160;22598;-77
2021/04/10 09:23:29;;;;;;;19.33;15.10;;;;;;;15.24;36.14;100272.66;121673;1157;22689;-77
2021/04/10 09:26:20;;;;;;;18.38;14.48;;;;;;;15.43;35.42;100276.41;121655;1158;23294;-76
2021/04/10 09:29:16;;;;;;;18.78;13.53;;;;;;;15.59;35.98;100280.52;121485;1158;22558;-76
2021/04/10 09:31:49;;;;;;;21.48;15.45;;;;;;;15.76;35.52;100286.30;122110;1155;22600;-77
2021/04/10 09:34:45;;;;;;;22.78;18.28;;;;;;;15.76;35.11;100286.30;122075;1154;22645;-78
2021/04/10 09:37:58;;;;;;;20.50;17.28;;;;;;;15.70;35.22;100287.95;122084;1155;22757;-76
2021/04/10 09:40:52;;;;;;;20.93;16.60;;;;;;;15.76;35.31;100289.81;121860;1155;22564;-77
2021/04/10 09:44:07;;;;;;;27.88;18.60;;;;;;;15.88;35.26;100287.34;121805;1155;24954;-77
2021/04/10 09:46:54;;;;;;;23.10;17.10;;;;;;;15.99;34.92;100291.23;122076;1155;22559;-76
2021/04/10 09:49:50;;;;;;;21.00;16.00;;;;;;;15.96;34.43;100283.66;122094;1153;22543;-76
2021/04/10 09:52:26;;;;;;;24.98;17.10;;;;;;;15.91;34.41;100291.45;121562;1158;24470;-76
2021/04/10 09:54:58;;;;;;;24.43;18.30;;;;;;;15.96;34.63;100287.16;121518;1158;22580;-76
2021/04/10 09:57:27;;;;;;;20.48;15.88;;;;;;;15.95;34.20;100284.69;121323;1158;22570;-77
2021/04/10 10:00:07;;;;;;;19.68;15.43;;;;;;;16.05;34.53;100279.77;121510;1158;22576;-77
2021/04/10 10:02:36;;;;;;;17.13;14.48;;;;;;;16.21;34.80;100281.20;121520;1158;22572;-75
2021/04/10 10:05:16;;;;;;;20.83;14.28;;;;;;;16.25;33.65;100282.42;121471;1158;24819;-76
2021/04/10 10:07:49;;;;;;;18.10;13.53;;;;;;;16.26;33.46;100272.58;122097;1156;22616;-85
2021/04/10 10:10:52;;;;;;;16.57;13.63;;;;;;;16.29;33.99;100272.98;121591;1155;24703;-78
2021/04/10 10:13:32;;;;;;;15.80;13.23;;;;;;;16.32;33.64;100269.09;121819;1156;22567;-78
2021/04/10 10:16:25;;;;;;;15.35;13.83;;;;;;;16.36;33.62;100259.64;122073;1155;23005;-79
2021/04/10 10:19:05;;;;;;;15.83;13.23;;;;;;;16.50;33.17;100258.61;122098;1155;24498;-78
2021/04/10 10:21:42;;;;;;;16.08;14.48;;;;;;;16.72;33.58;100267.15;122113;1152;24712;-79
2021/04/10 10:24:19;;;;;;;18.63;15.08;;;;;;;16.98;33.56;100262.79;122037;1155;22528;-77
2021/04/10 10:27:03;;;;;;;15.23;13.13;;;;;;;17.41;33.41;100265.65;122185;1153;22551;-76
2021/04/10 10:29:50;;;;;;;17.15;13.20;;;;;;;17.61;32.50;100268.20;121667;1155;22569;-80
2021/04/10 10:32:30;;;;;;;15.68;13.03;;;;;;;17.63;31.87;100271.48;121285;1158;24546;-77
2021/04/10 10:35:33;;;;;;;22.75;17.08;;;;;;;17.55;31.55;100271.72;121309;1158;24737;-76
2021/04/10 10:38:08;;;;;;;20.15;15.18;;;;;;;17.56;31.39;100266.19;121324;1158;22628;-78
2021/04/10 10:40:38;;;;;;;32.55;19.50;;;;;;;17.55;30.97;100269.87;121320;1158;24731;-77
2021/04/10 10:43:12;;;;;;;23.13;16.10;;;;;;;17.44;31.73;100264.41;121152;1162;23007;-77
2021/04/10 10:46:01;;;;;;;21.93;16.40;;;;;;;17.37;32.05;100277.80;121143;1161;24500;-77
2021/04/10 10:48:37;;;;;;;27.43;18.80;;;;;;;17.10;32.20;100272.59;121211;1158;22587;-79
2021/04/10 10:51:22;;;;;;;26.28;17.88;;;;;;;16.94;32.77;100273.06;121564;1158;22575;-78
2021/04/10 10:54:00;;;;;;;26.90;21.88;;;;;;;16.75;33.52;100280.09;121582;1158;22930;-78
2021/04/10 10:56:57;;;;;;;29.90;21.48;;;;;;;16.51;34.06;100284.23;121521;1158;22883;-77
2021/04/10 10:59:28;;;;;;;28.30;22.50;;;;;;;16.41;34.30;100284.66;121580;1156;22733;-77
2021/04/10 11:02:18;;;;;;;31.65;27.03;;;;;;;16.21;34.36;100286.53;121540;1156;22806;-79
2021/04/10 11:04:57;;;;;;;30.23;23.02;;;;;;;16.00;34.51;100291.05;121359;1158;24456;-78
2021/04/10 11:07:33;;;;;;;28.43;23.23;;;;;;;15.86;35.20;100289.41;121371;1158;22551;-77
2021/04/10 11:10:22;;;;;;;29.05;25.00;;;;;;;15.77;35.16;100298.62;121571;1158;22623;-77
2021/04/10 11:13:04;;;;;;;31.30;24.55;;;;;;;15.66;35.38;100288.52;121627;1156;22779;-77
2021/04/10 11:15:47;;;;;;;25.58;23.02;;;;;;;15.56;35.69;100288.09;121518;1156;22550;-76
2021/04/10 11:18:34;;;;;;;32.60;26.48;;;;;;;15.48;35.53;100283.78;121565;1156;23071;-77
2021/04/10 11:21:22;;;;;;;32.88;25.18;;;;;;;15.29;35.87;100290.67;121681;1158;24708;-76
2021/04/10 11:23:57;;;;;;;27.03;22.83;;;;;;;15.10;36.12;100300.25;121573;1155;22553;-77
2021/04/10 11:26:46;;;;;;;28.35;24.35;;;;;;;14.97;35.84;100298.34;121644;1156;22558;-77
2021/04/10 11:29:35;;;;;;;28.03;25.00;;;;;;;14.87;36.23;100299.73;121611;1158;23326;-76
2021/04/10 11:32:18;;;;;;;31.98;24.90;;;;;;;14.74;36.62;100303.95;121578;1158;22734;-78
2021/04/10 11:35:06;;;;;;;29.63;23.95;;;;;;;14.66;37.02;100298.81;121679;1158;22572;-77
2021/04/10 11:37:34;;;;;;;28.95;23.50;;;;;;;14.62;36.88;100304.69;121423;1158;22574;-77
2021/04/10 11:40:35;;;;;;;35.33;25.18;;;;;;;14.56;37.16;100300.97;121548;1158;22650;-77
2021/04/10 11:43:13;;;;;;;27.15;22.85;;;;;;;14.50;37.65;100299.93;121213;1161;22613;-77
2021/04/10 11:45:58;;;;;;;33.10;24.23;;;;;;;14.45;37.37;100304.14;121368;1161;22576;-78
2021/04/10 11:48:48;;;;;;;37.08;27.55;;;;;;;14.34;37.36;100306.33;121219;1161;22834;-78
2021/04/10 11:51:26;;;;;;;27.13;24.03;;;;;;;14.28;37.46;100311.59;121157;1161;22607;-78
2021/04/10 11:53:57;;;;;;;29.80;22.48;;;;;;;14.22;37.46;100307.04;121293;1161;22595;-79
2021/04/10 11:56:34;;;;;;;31.38;23.53;;;;;;;14.17;37.92;100298.84;121213;1158;22642;-78
2021/04/10 11:59:08;;;;;;;28.78;23.93;;;;;;;14.12;37.70;100307.37;121289;1161;24610;-78
2021/04/10 12:01:54;;;;;;;32.80;24.15;;;;;;;14.08;37.80;100314.90;121304;1158;24438;-79